createdAt,value
2022-10-10T00:00:59.290Z,101504.00
2022-10-10T00:03:27.079Z,101524.97
2022-10-10T00:05:54.824Z,101520.59
2022-10-10T00:08:22.573Z,101516.41
2022-10-10T00:10:50.290Z,101517.19
2022-10-10T00:13:18.000Z,101508.13
2022-10-10T00:15:48.870Z,101514.41
2022-10-10T00:18:18.201Z,101520.56
2022-10-10T00:20:46.064Z,101512.38
2022-10-10T00:23:13.792Z,101520.41
2022-10-10T00:25:41.492Z,101512.75
2022-10-10T00:28:09.276Z,101513.50
2022-10-10T00:30:37.013Z,101524.28
2022-10-10T00:33:04.770Z,101511.63
2022-10-10T00:35:33.909Z,101498.91
2022-10-10T00:38:02.029Z,101525.69
2022-10-10T00:40:30.093Z,101542.09
2022-10-10T00:42:57.857Z,101525.16
2022-10-10T00:45:30.054Z,101528.75
2022-10-10T00:48:03.547Z,101525.72
2022-10-10T00:50:34.973Z,101526.53
2022-10-10T00:53:06.801Z,101529.25
2022-10-10T00:55:35.852Z,101517.75
2022-10-10T00:58:04.879Z,101526.03
2022-10-10T01:00:32.628Z,101499.69
2022-10-10T01:03:00.394Z,101489.38
2022-10-10T01:05:28.198Z,101488.19
2022-10-10T01:07:57.956Z,101480.31
2022-10-10T01:10:26.486Z,101498.44
2022-10-10T01:13:06.417Z,101512.66
2022-10-10T01:15:48.597Z,101533.56
2022-10-10T01:18:24.254Z,101522.31
2022-10-10T01:21:04.709Z,101530.31
2022-10-10T01:23:52.351Z,101512.84
2022-10-10T01:26:44.795Z,101515.00
2022-10-10T01:29:23.027Z,101515.53
2022-10-10T01:31:55.290Z,101515.66
2022-10-10T01:34:32.421Z,101505.63
2022-10-10T01:37:05.518Z,101507.34
2022-10-10T01:39:43.521Z,101500.66
2022-10-10T01:42:17.452Z,101488.19
2022-10-10T01:44:48.301Z,101504.81
2022-10-10T01:47:16.179Z,101480.31
2022-10-10T01:49:46.099Z,101488.19
2022-10-10T01:52:29.646Z,101471.56
2022-10-10T01:55:10.953Z,101466.75
2022-10-10T01:57:51.031Z,101470.00
2022-10-10T02:00:20.535Z,101463.69
2022-10-10T02:02:54.339Z,101466.44
2022-10-10T02:05:29.126Z,101469.91
2022-10-10T02:07:59.386Z,101459.69
2022-10-10T02:10:30.956Z,101459.13
2022-10-10T02:13:01.866Z,101442.63
2022-10-10T02:15:36.025Z,101415.78
2022-10-10T02:18:06.283Z,101421.16
2022-10-10T02:20:34.220Z,101408.38
2022-10-10T02:23:02.057Z,101379.16
2022-10-10T02:25:33.930Z,101366.84
2022-10-10T02:28:09.872Z,101346.25
2022-10-10T02:30:44.129Z,101338.56
2022-10-10T02:33:17.115Z,101321.44
2022-10-10T02:35:49.362Z,101311.56
2022-10-10T02:38:19.077Z,101307.81
2022-10-10T02:40:49.213Z,101291.00
2022-10-10T02:43:18.838Z,101288.28
2022-10-10T02:45:48.136Z,101274.13
2022-10-10T02:48:15.851Z,101267.59
2022-10-10T02:50:44.178Z,101271.53
2022-10-10T02:53:11.928Z,101271.28
2022-10-10T02:55:39.653Z,101270.34
2022-10-10T02:58:07.450Z,101268.13
2022-10-10T03:00:35.143Z,101260.50
2022-10-10T03:03:04.328Z,101272.69
2022-10-10T03:05:32.026Z,101264.56
2022-10-10T03:07:59.730Z,101261.81
2022-10-10T03:10:27.557Z,101262.91
2022-10-10T03:12:55.270Z,101252.84
2022-10-10T03:15:22.963Z,101248.16
2022-10-10T03:17:50.631Z,101246.69
2022-10-10T03:20:19.855Z,101247.63
2022-10-10T03:22:47.735Z,101255.75
2022-10-10T03:25:15.665Z,101243.41
2022-10-10T03:27:43.470Z,101241.56
2022-10-10T03:30:12.519Z,101232.91
2022-10-10T03:32:40.266Z,101236.84
2022-10-10T03:35:08.547Z,101230.72
2022-10-10T03:37:37.587Z,101234.75
2022-10-10T03:40:06.100Z,101242.41
2022-10-10T03:42:33.781Z,101229.94
2022-10-10T03:45:01.437Z,101234.97
2022-10-10T03:47:29.161Z,101240.22
2022-10-10T03:49:56.792Z,101232.44
2022-10-10T03:52:24.430Z,101227.13
2022-10-10T03:54:53.530Z,101214.28
2022-10-10T03:57:21.200Z,101207.31
2022-10-10T03:59:49.012Z,101203.00
2022-10-10T04:02:16.700Z,101201.84
2022-10-10T04:04:44.361Z,101196.31
2022-10-10T04:07:12.091Z,101193.53
2022-10-10T04:09:40.140Z,101192.13
2022-10-10T04:12:09.251Z,101185.75
2022-10-10T04:14:36.913Z,101191.63
2022-10-10T04:17:04.615Z,101186.22
2022-10-10T04:19:32.306Z,101181.75
2022-10-10T04:22:00.012Z,101185.09
2022-10-10T04:24:28.050Z,101177.16
2022-10-10T04:26:55.797Z,101173.13
2022-10-10T04:29:24.943Z,101175.63
2022-10-10T04:31:52.635Z,101173.16
2022-10-10T04:34:20.896Z,101175.31
2022-10-10T04:36:48.577Z,101174.00
2022-10-10T04:39:16.256Z,101173.16
2022-10-10T04:41:43.937Z,101167.50
2022-10-10T04:44:11.605Z,101179.88
2022-10-10T04:46:40.686Z,101174.59
2022-10-10T04:49:08.379Z,101166.91
2022-10-10T04:51:36.054Z,101176.41
2022-10-10T04:54:03.820Z,101166.22
2022-10-10T04:56:31.516Z,101166.53
2022-10-10T04:58:59.196Z,101166.66
2022-10-10T05:01:26.939Z,101161.28
2022-10-10T05:03:56.247Z,101164.53
2022-10-10T05:06:23.952Z,101164.28
2022-10-10T05:08:51.681Z,101167.28
2022-10-10T05:11:19.437Z,101164.16
2022-10-10T05:13:47.123Z,101156.50
2022-10-10T05:16:14.786Z,101176.97
2022-10-10T05:18:42.520Z,101185.47
2022-10-10T05:21:11.979Z,101201.28
2022-10-10T05:23:41.353Z,101182.81
2022-10-10T05:26:09.832Z,101234.16
2022-10-10T05:28:38.312Z,101228.13
2022-10-10T05:31:06.703Z,101221.69
2022-10-10T05:33:35.240Z,101203.00
2022-10-10T05:36:05.218Z,101188.97
2022-10-10T05:38:34.657Z,101181.06
2022-10-10T05:41:02.361Z,101156.34
2022-10-10T05:43:30.408Z,101136.94
2022-10-10T05:45:58.102Z,101142.91
2022-10-10T05:48:26.132Z,101136.31
2022-10-10T05:50:56.999Z,101128.16
2022-10-10T05:53:25.846Z,101130.56
2022-10-10T05:55:54.887Z,101139.44
2022-10-10T05:58:22.705Z,101137.03
2022-10-10T06:00:50.451Z,101135.59
2022-10-10T06:03:18.273Z,101137.50
2022-10-10T06:05:48.733Z,101127.19
2022-10-10T06:08:16.485Z,101120.00
2022-10-10T06:10:46.784Z,101114.13
2022-10-10T06:13:23.051Z,101101.50
2022-10-10T06:15:52.445Z,101101.28
2022-10-10T06:18:20.206Z,101102.00
2022-10-10T06:20:47.950Z,101104.66
2022-10-10T06:23:16.350Z,101108.63
2022-10-10T06:25:44.088Z,101112.94
2022-10-10T06:28:12.256Z,101104.41
2022-10-10T06:30:48.430Z,101094.34
2022-10-10T06:33:18.569Z,101098.91
2022-10-10T06:35:48.576Z,101096.13
2022-10-10T06:38:18.044Z,101084.81
2022-10-10T06:40:46.560Z,101062.53
2022-10-10T06:43:15.716Z,101062.66
2022-10-10T06:45:47.163Z,101051.59
2022-10-10T06:48:15.929Z,101047.59
2022-10-10T06:50:43.804Z,101044.03
2022-10-10T06:53:11.871Z,101040.56
2022-10-10T06:55:39.565Z,101041.22
2022-10-10T06:58:07.652Z,101029.75
2022-10-10T07:00:35.346Z,101034.38
2022-10-10T07:03:04.669Z,101036.13
2022-10-10T07:05:32.364Z,101033.75
2022-10-10T07:08:00.024Z,101034.38
2022-10-10T07:10:27.741Z,101038.25
2022-10-10T07:12:55.598Z,101047.94
2022-10-10T07:15:23.903Z,101054.34
2022-10-10T07:17:58.537Z,101060.94
2022-10-10T07:20:27.862Z,101057.09
2022-10-10T07:22:55.552Z,101078.41
2022-10-10T07:25:23.638Z,101078.41
2022-10-10T07:27:51.413Z,101101.84
2022-10-10T07:30:19.496Z,101088.63
2022-10-10T07:32:47.495Z,101093.28
2022-10-10T07:35:15.213Z,101120.22
2022-10-10T07:37:45.090Z,101116.59
2022-10-10T07:40:12.802Z,101110.13
2022-10-10T07:42:40.633Z,101124.91
2022-10-10T07:45:10.368Z,101214.44
2022-10-10T07:47:38.031Z,101270.72
2022-10-10T07:50:07.665Z,101333.66
2022-10-10T07:52:35.704Z,101357.53
2022-10-10T07:55:05.675Z,101352.28
2022-10-10T07:57:34.988Z,101356.28
2022-10-10T08:00:03.208Z,101398.50
2022-10-10T08:02:30.886Z,101400.00
2022-10-10T08:04:58.559Z,101456.75
2022-10-10T08:07:26.241Z,101435.78
2022-10-10T08:09:53.928Z,101457.53
2022-10-10T08:12:23.004Z,101460.53
2022-10-10T08:14:50.720Z,101461.69
2022-10-10T08:17:18.425Z,101461.28
2022-10-10T08:19:46.180Z,101469.41
2022-10-10T08:22:13.880Z,101456.66
2022-10-10T08:24:41.582Z,101451.28
2022-10-10T08:27:09.261Z,101454.16
2022-10-10T08:29:38.387Z,101457.41
2022-10-10T08:32:06.261Z,101453.75
2022-10-10T08:34:34.083Z,101443.16
2022-10-10T08:37:01.814Z,101440.78
2022-10-10T08:39:29.548Z,101460.16
2022-10-10T08:41:59.434Z,101442.44
2022-10-10T08:44:30.520Z,101450.63
2022-10-10T08:47:02.568Z,101439.28
2022-10-10T08:49:35.617Z,101457.41
2022-10-10T08:52:09.428Z,101458.28
2022-10-10T08:54:40.259Z,101461.16
2022-10-10T08:57:21.230Z,101458.25
2022-10-10T08:59:49.817Z,101440.69
2022-10-10T09:02:50.262Z,101441.19
2022-10-10T09:05:21.028Z,101444.84
2022-10-10T09:08:22.158Z,101446.50
2022-10-10T09:10:57.619Z,101444.88
2022-10-10T09:13:35.170Z,101451.59
2022-10-10T09:16:07.196Z,101437.75
2022-10-10T09:18:46.741Z,101434.56
2022-10-10T09:21:18.730Z,101431.06
2022-10-10T09:23:52.283Z,101425.47
2022-10-10T09:26:24.277Z,101427.56
2022-10-10T09:28:59.048Z,101426.94
2022-10-10T09:31:32.945Z,101419.50
2022-10-10T09:34:08.164Z,101417.22
2022-10-10T09:36:38.393Z,101422.03
2022-10-10T09:39:14.993Z,101409.16
2022-10-10T09:41:48.576Z,101425.66
2022-10-10T09:44:16.355Z,101403.16
2022-10-10T09:46:44.102Z,101396.84
2022-10-10T09:49:15.857Z,101397.72
2022-10-10T09:51:44.212Z,101397.25
2022-10-10T09:54:12.554Z,101393.13
2022-10-10T09:56:45.811Z,101386.25
2022-10-10T09:59:38.514Z,101382.78
2022-10-10T10:02:14.566Z,101381.41
2022-10-10T10:04:43.718Z,101377.03
2022-10-10T10:07:22.080Z,101373.59
2022-10-10T10:09:51.933Z,101366.56
2022-10-10T10:12:24.341Z,101368.03
2022-10-10T10:14:59.553Z,101365.06
2022-10-10T10:17:27.445Z,101367.38
2022-10-10T10:19:56.601Z,101375.88
2022-10-10T10:22:27.161Z,101372.72
2022-10-10T10:24:55.361Z,101379.00
2022-10-10T10:27:25.208Z,101377.84
2022-10-10T10:29:54.885Z,101382.13
2022-10-10T10:32:39.575Z,101392.59
2022-10-10T10:35:18.912Z,101388.56
2022-10-10T10:38:02.888Z,101374.50
2022-10-10T10:40:40.047Z,101374.47
2022-10-10T10:43:29.102Z,101377.22
2022-10-10T10:46:06.274Z,101364.63
2022-10-10T10:48:41.405Z,101369.16
2022-10-10T10:51:28.158Z,101375.75
2022-10-10T10:54:05.142Z,101384.09
2022-10-10T10:56:39.956Z,101380.06
2022-10-10T10:59:38.999Z,101364.31
2022-10-10T11:02:54.833Z,101354.78
2022-10-10T11:05:41.571Z,101353.41
2022-10-10T11:08:35.837Z,101343.09
2022-10-10T11:11:32.259Z,101346.94
2022-10-10T11:14:07.827Z,101345.88
2022-10-10T11:16:48.382Z,101336.56
2022-10-10T11:19:26.187Z,101335.94
2022-10-10T11:21:59.446Z,101332.25
2022-10-10T11:24:39.592Z,101337.28
2022-10-10T11:27:12.441Z,101325.41
2022-10-10T11:29:52.094Z,101324.94
2022-10-10T11:32:27.051Z,101325.31
2022-10-10T11:35:11.290Z,101315.41
2022-10-10T11:37:46.184Z,101312.84
2022-10-10T11:40:28.924Z,101312.81
2022-10-10T11:43:02.553Z,101297.19
2022-10-10T11:45:35.312Z,101287.16
2022-10-10T11:48:13.412Z,101295.19
2022-10-10T11:50:43.406Z,101294.53
2022-10-10T11:53:21.040Z,101289.38
2022-10-10T11:55:55.746Z,101276.59
2022-10-10T11:58:29.578Z,101273.13
2022-10-10T12:01:00.463Z,101274.13
2022-10-10T12:03:28.277Z,101269.38
2022-10-10T12:06:03.451Z,101287.19
2022-10-10T12:08:38.254Z,101286.59
2022-10-10T12:11:16.707Z,101283.81
2022-10-10T12:13:48.207Z,101281.66
2022-10-10T12:16:20.172Z,101285.84
2022-10-10T12:18:53.699Z,101274.59
2022-10-10T12:21:24.693Z,101276.34
2022-10-10T12:24:02.503Z,101264.47
2022-10-10T12:27:03.712Z,101259.09
2022-10-10T12:29:48.877Z,101263.97
2022-10-10T12:32:27.537Z,101264.34
2022-10-10T12:35:00.816Z,101254.56
2022-10-10T12:37:31.148Z,101257.25
2022-10-10T12:40:19.704Z,101257.78
2022-10-10T12:43:24.267Z,101245.34
2022-10-10T12:46:18.326Z,101242.22
2022-10-10T12:48:46.630Z,101239.88
2022-10-10T12:51:22.935Z,101234.53
2022-10-10T12:53:56.365Z,101229.94
2022-10-10T12:56:36.538Z,101236.88
2022-10-10T12:59:06.023Z,101241.06
2022-10-10T13:01:45.573Z,101229.28
2022-10-10T13:04:17.230Z,101228.53
2022-10-10T13:06:46.745Z,101235.34
2022-10-10T13:09:19.609Z,101230.28
2022-10-10T13:11:59.150Z,101223.59
2022-10-10T13:14:38.203Z,101222.47
2022-10-10T13:17:21.533Z,101223.63
2022-10-10T13:19:49.264Z,101225.72
2022-10-10T13:22:17.485Z,101219.16
2022-10-10T13:24:46.581Z,101216.00
2022-10-10T13:27:19.894Z,101220.56
2022-10-10T13:29:47.922Z,101230.34
2022-10-10T13:32:18.325Z,101219.81
2022-10-10T13:34:51.552Z,101211.72
2022-10-10T13:37:20.629Z,101218.75
2022-10-10T13:39:50.705Z,101210.84
2022-10-10T13:42:34.704Z,101215.88
2022-10-10T13:45:05.176Z,101218.03
2022-10-10T13:47:52.699Z,101214.84
2022-10-10T13:50:33.061Z,101212.31
2022-10-10T13:53:40.422Z,101205.06
2022-10-10T13:56:13.322Z,101197.19
2022-10-10T13:58:44.776Z,101196.19
2022-10-10T14:01:32.498Z,101201.31
2022-10-10T14:04:05.654Z,101205.50
2022-10-10T14:06:35.571Z,101201.38
2022-10-10T14:09:10.799Z,101208.50
2022-10-10T14:11:38.690Z,101207.59
2022-10-10T14:14:15.878Z,101200.19
2022-10-10T14:16:43.628Z,101199.81
2022-10-10T14:19:18.072Z,101197.75
2022-10-10T14:21:47.148Z,101203.19
2022-10-10T14:24:16.117Z,101202.69
2022-10-10T14:26:44.183Z,101202.59
2022-10-10T14:29:14.198Z,101194.88
2022-10-10T14:31:42.394Z,101206.22
2022-10-10T14:34:10.414Z,101203.13
2022-10-10T14:36:40.139Z,101202.56
2022-10-10T14:39:09.210Z,101198.16
2022-10-10T14:41:36.903Z,101199.19
2022-10-10T14:44:04.652Z,101196.69
2022-10-10T14:46:32.504Z,101192.94
2022-10-10T14:49:00.208Z,101204.13
2022-10-10T14:51:33.659Z,101204.03
2022-10-10T14:54:10.965Z,101204.09
2022-10-10T14:57:08.337Z,101200.72
2022-10-10T14:59:48.197Z,101202.66
2022-10-10T15:05:12.321Z,101202.31
2022-10-10T15:07:40.130Z,101203.16
2022-10-10T15:12:58.373Z,101200.16
2022-10-10T15:15:26.171Z,101190.03
2022-10-10T15:17:55.039Z,101194.16
2022-10-10T15:20:25.584Z,101185.13
2022-10-10T15:22:54.767Z,101183.91
2022-10-10T15:25:22.424Z,101186.00
2022-10-10T15:27:50.468Z,101182.13
2022-10-10T15:30:19.860Z,101175.38
2022-10-10T15:32:47.916Z,101177.53
2022-10-10T15:35:17.853Z,101180.78
2022-10-10T15:37:49.297Z,101172.78
2022-10-10T15:40:20.231Z,101163.78
2022-10-10T15:42:48.761Z,101144.88
2022-10-10T15:45:31.303Z,101144.78
2022-10-10T15:48:06.789Z,101150.19
2022-10-10T15:50:39.350Z,101141.00
2022-10-10T15:53:07.013Z,101131.34
2022-10-10T15:55:34.701Z,101134.09
2022-10-10T15:58:03.978Z,101122.66
2022-10-10T16:00:31.694Z,101107.97
2022-10-10T16:02:59.472Z,101112.63
2022-10-10T16:05:32.152Z,101126.34
2022-10-10T16:08:00.155Z,101112.81
2022-10-10T16:10:27.904Z,101109.59
2022-10-10T16:12:55.694Z,101112.94
2022-10-10T16:15:23.536Z,101089.94
2022-10-10T16:17:51.237Z,101063.78
2022-10-10T16:20:19.053Z,101071.09
2022-10-10T16:22:48.099Z,101064.75
2022-10-10T16:25:22.234Z,101074.78
2022-10-10T16:27:51.051Z,101063.59
2022-10-10T16:30:19.900Z,101047.59
2022-10-10T16:32:47.663Z,101046.41
2022-10-10T16:35:15.498Z,101036.59
2022-10-10T16:37:43.211Z,101026.59
2022-10-10T16:40:13.098Z,101025.56
2022-10-10T16:42:40.809Z,101023.06
2022-10-10T16:45:09.760Z,101041.09
2022-10-10T16:47:38.170Z,101042.41
2022-10-10T16:50:07.321Z,101042.25
2022-10-10T16:52:37.998Z,101061.94
2022-10-10T16:55:07.710Z,101057.47
2022-10-10T16:57:36.950Z,101073.78
2022-10-10T17:00:06.562Z,101070.09
2022-10-10T17:02:34.299Z,101052.28
2022-10-10T17:05:02.168Z,101065.78
2022-10-10T17:07:29.889Z,101025.75
2022-10-10T17:09:57.592Z,101026.22
2022-10-10T17:12:25.312Z,101025.56
2022-10-10T17:14:54.364Z,101006.44
2022-10-10T17:17:22.612Z,101018.41
2022-10-10T17:19:50.293Z,101015.22
2022-10-10T17:22:18.066Z,101003.75
2022-10-10T17:24:45.929Z,101007.56
2022-10-10T17:27:14.021Z,101019.41
2022-10-10T17:29:41.738Z,101008.06
2022-10-10T17:32:10.954Z,100995.75
2022-10-10T17:34:38.953Z,101004.91
2022-10-10T17:37:06.664Z,101034.06
2022-10-10T17:39:35.938Z,101016.75
2022-10-10T17:42:04.621Z,101018.75
2022-10-10T17:44:36.147Z,101037.94
2022-10-10T17:47:08.299Z,101036.59
2022-10-10T17:49:37.894Z,101030.09
2022-10-10T17:52:05.919Z,101043.28
2022-10-10T17:54:33.608Z,101043.44
2022-10-10T17:57:01.307Z,101048.94
2022-10-10T17:59:29.035Z,101047.44
2022-10-10T18:01:56.855Z,101074.56
2022-10-10T18:04:24.691Z,101058.94
2022-10-10T18:06:53.767Z,101048.09
2022-10-10T18:09:21.688Z,101062.09
2022-10-10T18:11:49.540Z,101050.28
2022-10-10T18:14:17.348Z,101047.28
2022-10-10T18:16:45.086Z,101041.75
2022-10-10T18:19:12.823Z,101067.47
2022-10-10T18:21:40.528Z,101072.63
2022-10-10T18:24:10.307Z,101066.59
2022-10-10T18:26:38.165Z,101058.09
2022-10-10T18:29:05.876Z,101075.94
2022-10-10T18:31:35.603Z,101076.94
2022-10-10T18:34:05.214Z,101032.56
2022-10-10T18:36:35.634Z,100982.75
2022-10-10T18:39:05.852Z,100948.72
2022-10-10T18:41:36.089Z,100912.25
2022-10-10T18:44:06.375Z,100866.59
2022-10-10T18:46:34.977Z,100820.75
2022-10-10T18:49:02.941Z,100802.97
2022-10-10T18:51:31.565Z,100787.97
2022-10-10T18:54:03.232Z,100778.94
2022-10-10T18:56:32.190Z,100774.31
2022-10-10T18:59:03.336Z,100772.25
2022-10-10T19:01:35.146Z,100769.75
2022-10-10T19:04:03.531Z,100774.63
2022-10-10T19:06:31.671Z,100772.78
2022-10-10T19:09:01.368Z,100768.53
2022-10-10T19:11:30.999Z,100768.09
2022-10-10T19:14:02.404Z,100773.13
2022-10-10T19:16:30.527Z,100765.63
2022-10-10T19:18:59.498Z,100773.97
2022-10-10T19:21:30.252Z,100785.94
2022-10-10T19:23:59.822Z,100791.13
2022-10-10T19:26:33.253Z,100814.75
2022-10-10T19:29:06.823Z,100871.69
2022-10-10T19:31:35.670Z,100928.09
2022-10-10T19:34:03.775Z,101041.47
2022-10-10T19:36:31.503Z,101087.50
2022-10-10T19:39:00.277Z,101124.81
2022-10-10T19:41:28.321Z,101239.00
2022-10-10T19:43:57.937Z,101281.19
2022-10-10T19:46:27.961Z,101341.66
2022-10-10T19:48:57.870Z,101411.81
2022-10-10T19:51:26.134Z,101488.75
2022-10-10T19:53:53.816Z,101495.63
2022-10-10T19:56:24.481Z,101540.06
2022-10-10T19:58:53.085Z,101591.28
2022-10-10T20:01:25.610Z,101602.28
2022-10-10T20:03:57.807Z,101628.25
2022-10-10T20:06:25.992Z,101624.88
2022-10-10T20:08:53.696Z,101635.78
2022-10-10T20:11:23.191Z,101615.66
2022-10-10T20:13:51.927Z,101600.09
2022-10-10T20:16:20.097Z,101594.34
2022-10-10T20:18:48.070Z,101562.56
2022-10-10T20:21:20.518Z,101536.69
2022-10-10T20:24:08.366Z,101516.97
2022-10-10T20:26:39.064Z,101494.97
2022-10-10T20:29:07.440Z,101487.97
2022-10-10T20:31:37.310Z,101446.72
2022-10-10T20:34:06.750Z,101434.97
2022-10-10T20:36:36.880Z,101429.09
2022-10-10T20:39:07.944Z,101412.84
2022-10-10T20:41:39.618Z,101387.69
2022-10-10T20:44:09.495Z,101383.25
2022-10-10T20:46:40.077Z,101369.91
2022-10-10T20:49:12.421Z,101351.06
2022-10-10T20:51:41.796Z,101188.28
2022-10-10T20:54:11.956Z,101143.91
2022-10-10T20:56:40.680Z,101098.50
2022-10-10T20:59:10.640Z,101110.31
2022-10-10T21:01:39.247Z,101098.91
2022-10-10T21:04:10.472Z,101101.84
2022-10-10T21:06:39.599Z,101087.72
2022-10-10T21:09:10.734Z,101087.59
2022-10-10T21:11:39.633Z,101088.13
2022-10-10T21:14:07.669Z,101079.94
2022-10-10T21:16:37.097Z,101072.47
2022-10-10T21:19:06.292Z,101103.44
2022-10-10T21:21:35.108Z,101081.97
2022-10-10T21:24:05.006Z,101086.88
2022-10-10T21:26:34.328Z,101087.97
2022-10-10T21:29:02.173Z,101076.25
2022-10-10T21:31:32.286Z,101068.16
2022-10-10T21:34:02.067Z,101069.66
2022-10-10T21:36:30.179Z,101060.69
2022-10-10T21:38:59.048Z,101065.47
2022-10-10T21:41:27.049Z,101061.38
2022-10-10T21:43:58.362Z,101082.81
2022-10-10T21:46:32.419Z,101090.78
2022-10-10T21:49:05.781Z,101073.31
2022-10-10T21:51:36.397Z,101069.94
2022-10-10T21:54:04.377Z,101099.38
2022-10-10T21:56:32.092Z,101110.38
2022-10-10T21:59:01.833Z,101113.19
2022-10-10T22:01:32.765Z,101141.66
2022-10-10T22:04:02.087Z,101143.03
2022-10-10T22:06:30.051Z,101155.22
2022-10-10T22:08:59.969Z,101185.78
2022-10-10T22:11:29.532Z,101204.78
2022-10-10T22:13:57.711Z,101196.47
2022-10-10T22:16:26.813Z,101214.03
2022-10-10T22:18:55.345Z,101232.31
2022-10-10T22:21:26.766Z,101239.06
2022-10-10T22:23:57.124Z,101223.69
2022-10-10T22:26:25.476Z,101233.16
2022-10-10T22:28:53.237Z,101236.75
2022-10-10T22:31:21.356Z,101259.34
2022-10-10T22:33:50.442Z,101254.78
2022-10-10T22:36:18.183Z,101248.34
2022-10-10T22:38:46.593Z,101270.41
2022-10-10T22:41:14.903Z,101281.56
2022-10-10T22:43:42.665Z,101258.22
2022-10-10T22:46:10.514Z,101265.22
2022-10-10T22:48:38.514Z,101302.16
2022-10-10T22:51:09.233Z,101299.06
2022-10-10T22:53:37.032Z,101306.31
2022-10-10T22:56:05.904Z,101319.78
2022-10-10T22:58:33.808Z,101309.69
2022-10-10T23:01:04.894Z,101304.22
2022-10-10T23:03:32.980Z,101265.94
2022-10-10T23:06:00.785Z,101238.28
2022-10-10T23:08:30.088Z,101261.56
2022-10-10T23:10:57.837Z,101311.41
2022-10-10T23:13:25.551Z,101275.88
2022-10-10T23:15:53.383Z,101285.09
2022-10-10T23:18:21.264Z,101291.19
2022-10-10T23:20:50.293Z,101291.16
2022-10-10T23:23:19.140Z,101299.94
2022-10-10T23:25:49.430Z,101284.94
2022-10-10T23:28:18.714Z,101290.44
2022-10-10T23:30:48.579Z,101287.28
2022-10-10T23:33:17.401Z,101281.59
2022-10-10T23:35:45.612Z,101268.84
2022-10-10T23:38:13.305Z,101284.41
2022-10-10T23:40:41.005Z,101288.13
2022-10-10T23:43:10.626Z,101296.69
2022-10-10T23:45:41.194Z,101325.06
2022-10-10T23:48:08.887Z,101326.06
2022-10-10T23:50:36.602Z,101327.63
2022-10-10T23:53:04.617Z,101344.66
2022-10-10T23:55:32.355Z,101362.22
2022-10-10T23:58:02.831Z,101352.50
